Flasher, North Dakota
Current Conditions -  °F | °C
As of 2:35 AM on Wednesday 26 Nov 2014 (Local Time) from KY19 Reporting Station
Overcast Overcast  
Wind Chill: -5°   Ceiling: 1800
Heat Index: 10°   Visibility: 10mi
Dew Point:   Wind: 13mph
Humidity: 85%   Direction: 340°NNW
Pressure: 30.25"   Gusts: NA
Location:  46.46°N, 101.23°W
Report Text: KY19 260935Z AUTO 34011KT 10SM OVC018 M12/M14 A3025 RMK AO2
Loading
Personal Weather Stations






























Interactive Weather Map New forecast layout! Learn more

10-Day Weather Forecast

Advertisements
Track Severe Weather on mobile